createdAt,value
2022-07-27T00:01:51.441Z,99.90
2022-07-27T00:03:54.798Z,99.90
2022-07-27T00:05:58.469Z,99.90
2022-07-27T00:08:02.081Z,99.90
2022-07-27T00:10:06.864Z,99.90
2022-07-27T00:12:10.733Z,99.90
2022-07-27T00:14:14.656Z,99.90
2022-07-27T00:16:18.169Z,99.90
2022-07-27T00:18:22.055Z,99.90
2022-07-27T00:20:27.455Z,99.90
2022-07-27T00:22:31.005Z,99.90
2022-07-27T00:24:34.634Z,99.90
2022-07-27T00:26:38.247Z,99.90
2022-07-27T00:28:41.873Z,99.90
2022-07-27T00:30:45.388Z,99.90
2022-07-27T00:32:48.985Z,99.90
2022-07-27T00:34:52.559Z,99.90
2022-07-27T00:36:56.092Z,99.90
2022-07-27T00:38:59.695Z,99.90
2022-07-27T00:41:03.336Z,99.90
2022-07-27T00:43:06.884Z,99.90
2022-07-27T00:45:11.834Z,99.90
2022-07-27T00:47:15.452Z,99.90
2022-07-27T00:49:19.156Z,99.90
2022-07-27T00:51:23.140Z,99.90
2022-07-27T00:53:27.156Z,99.90
2022-07-27T00:55:31.549Z,99.90
2022-07-27T00:57:57.884Z,99.90
2022-07-27T00:59:41.373Z,99.90
2022-07-27T01:01:45.102Z,99.90
2022-07-27T01:03:48.759Z,99.90
2022-07-27T01:05:52.678Z,99.90
2022-07-27T01:07:57.853Z,99.90
2022-07-27T01:10:01.937Z,99.90
2022-07-27T01:12:08.754Z,99.90
2022-07-27T01:14:14.197Z,99.90
2022-07-27T01:16:19.067Z,99.90
2022-07-27T01:18:31.533Z,99.90
2022-07-27T01:20:36.909Z,99.90
2022-07-27T01:22:40.517Z,99.90
2022-07-27T01:24:44.383Z,99.90
2022-07-27T01:26:48.142Z,99.90
2022-07-27T01:28:56.945Z,99.90
2022-07-27T01:31:00.634Z,99.90
2022-07-27T01:33:05.441Z,99.90
2022-07-27T01:35:10.162Z,99.90
2022-07-27T01:37:13.730Z,99.90
2022-07-27T01:39:18.778Z,99.90
2022-07-27T01:41:22.277Z,99.90
2022-07-27T01:45:42.046Z,99.90
2022-07-27T01:50:02.925Z,99.90
2022-07-27T01:52:07.041Z,99.90
2022-07-27T01:54:10.753Z,99.90
2022-07-27T01:56:14.361Z,99.90
2022-07-27T01:58:18.798Z,99.90
2022-07-27T02:00:22.527Z,99.90
2022-07-27T02:02:26.237Z,99.90
2022-07-27T02:04:29.876Z,99.90
2022-07-27T02:06:33.508Z,99.90
2022-07-27T02:08:37.200Z,99.90
2022-07-27T02:11:00.228Z,99.90
2022-07-27T02:13:15.312Z,99.90
2022-07-27T02:15:14.897Z,99.90
2022-07-27T02:17:16.896Z,99.90
2022-07-27T02:19:22.137Z,99.90
2022-07-27T02:21:26.031Z,99.90
2022-07-27T02:23:30.912Z,99.90
2022-07-27T02:25:35.544Z,99.90
2022-07-27T02:27:39.393Z,99.90
2022-07-27T02:29:42.956Z,99.90
2022-07-27T02:31:46.538Z,99.90
2022-07-27T02:33:50.132Z,99.90
2022-07-27T02:35:53.717Z,99.90
2022-07-27T02:37:57.424Z,99.90
2022-07-27T02:40:00.966Z,99.90
2022-07-27T02:42:05.315Z,99.90
2022-07-27T02:44:08.805Z,99.90
2022-07-27T02:46:12.498Z,99.90
2022-07-27T02:48:16.310Z,99.90
2022-07-27T02:50:20.289Z,99.90
2022-07-27T02:52:23.876Z,99.90
2022-07-27T02:54:28.583Z,99.90
2022-07-27T02:56:32.212Z,99.90
2022-07-27T02:58:35.787Z,99.90
2022-07-27T03:00:39.272Z,99.90
2022-07-27T03:02:42.984Z,99.90
2022-07-27T03:04:46.648Z,99.90
2022-07-27T03:06:50.384Z,99.90
2022-07-27T03:08:53.975Z,99.90
2022-07-27T03:10:57.572Z,99.90
2022-07-27T03:13:01.153Z,99.90
2022-07-27T03:15:06.054Z,99.90
2022-07-27T03:17:09.561Z,99.90
2022-07-27T03:19:13.620Z,99.90
2022-07-27T03:21:17.690Z,99.90
2022-07-27T03:23:21.327Z,99.90
2022-07-27T03:25:25.312Z,99.90
2022-07-27T03:27:29.104Z,99.90
2022-07-27T03:29:32.709Z,99.90
2022-07-27T03:31:36.331Z,99.90
2022-07-27T03:33:39.928Z,99.90
2022-07-27T03:35:43.549Z,99.90
2022-07-27T03:37:47.141Z,99.90
2022-07-27T03:39:50.739Z,99.90
2022-07-27T03:41:54.324Z,99.90
2022-07-27T03:43:57.949Z,99.90
2022-07-27T03:46:01.537Z,99.90
2022-07-27T03:48:06.392Z,99.90
2022-07-27T03:50:10.677Z,99.90
2022-07-27T03:52:17.696Z,99.90
2022-07-27T03:54:19.680Z,99.90
2022-07-27T03:56:23.305Z,99.90
2022-07-27T03:58:26.876Z,99.90
2022-07-27T04:02:46.806Z,99.90
2022-07-27T04:04:50.275Z,99.90
2022-07-27T04:06:53.945Z,99.90
2022-07-27T04:09:07.973Z,99.90
2022-07-27T04:11:02.924Z,99.90
2022-07-27T04:13:06.453Z,99.90
2022-07-27T04:15:11.939Z,99.90
2022-07-27T04:17:54.070Z,99.90
2022-07-27T04:19:20.965Z,99.90
2022-07-27T04:21:24.536Z,99.90
2022-07-27T04:23:32.613Z,99.90
2022-07-27T04:25:35.396Z,99.90
2022-07-27T04:27:40.698Z,99.90
2022-07-27T04:29:44.552Z,99.90
2022-07-27T04:31:48.092Z,99.90
2022-07-27T04:33:51.780Z,99.90
2022-07-27T04:35:55.727Z,99.90
2022-07-27T04:37:59.923Z,99.90
2022-07-27T04:40:04.747Z,99.90
2022-07-27T04:42:09.149Z,99.90
2022-07-27T04:44:12.758Z,99.90
2022-07-27T04:46:16.498Z,99.90
2022-07-27T04:48:20.127Z,99.90
2022-07-27T04:50:24.087Z,99.90
2022-07-27T04:52:27.662Z,99.90
2022-07-27T04:54:32.469Z,99.90
2022-07-27T04:56:36.241Z,99.90
2022-07-27T04:58:39.863Z,99.90
2022-07-27T05:00:44.578Z,99.90
2022-07-27T05:02:48.215Z,99.90
2022-07-27T05:04:51.810Z,99.90
2022-07-27T05:06:55.360Z,99.90
2022-07-27T05:08:59.221Z,99.90
2022-07-27T05:11:02.948Z,99.90
2022-07-27T05:13:07.543Z,99.90
2022-07-27T05:15:12.226Z,99.90
2022-07-27T05:17:15.748Z,99.90
2022-07-27T05:19:19.325Z,99.90
2022-07-27T05:21:22.970Z,99.90
2022-07-27T05:23:26.586Z,99.90
2022-07-27T05:25:30.100Z,99.90
2022-07-27T05:27:33.700Z,99.90
2022-07-27T05:29:37.335Z,99.90
2022-07-27T05:31:41.019Z,99.90
2022-07-27T05:33:48.440Z,99.90
2022-07-27T05:35:50.283Z,99.90
2022-07-27T05:37:53.903Z,99.90
2022-07-27T05:39:57.479Z,99.90
2022-07-27T05:42:01.145Z,99.90
2022-07-27T05:44:05.323Z,99.90
2022-07-27T05:46:08.966Z,99.90
2022-07-27T05:48:12.608Z,99.90
2022-07-27T05:50:16.944Z,99.90
2022-07-27T05:52:20.549Z,99.90
2022-07-27T05:56:41.321Z,99.90
2022-07-27T05:58:44.934Z,99.90
2022-07-27T06:00:48.589Z,99.90
2022-07-27T06:02:52.166Z,99.90
2022-07-27T06:04:55.752Z,99.90
2022-07-27T06:07:17.376Z,99.90
2022-07-27T06:09:20.881Z,99.90
2022-07-27T06:11:24.504Z,99.90
2022-07-27T06:13:28.527Z,99.90
2022-07-27T06:15:32.895Z,99.90
2022-07-27T06:17:36.745Z,99.90
2022-07-27T06:21:56.753Z,99.90
2022-07-27T06:24:00.372Z,99.90
2022-07-27T06:26:04.445Z,99.90
2022-07-27T06:28:08.784Z,99.90
2022-07-27T06:30:14.005Z,99.90
2022-07-27T06:32:17.505Z,99.90
2022-07-27T06:34:22.725Z,99.90
2022-07-27T06:36:26.832Z,99.90
2022-07-27T06:38:30.487Z,99.90
2022-07-27T06:40:34.060Z,99.90
2022-07-27T06:42:38.611Z,99.90
2022-07-27T06:44:46.594Z,99.90
2022-07-27T06:46:54.708Z,99.90
2022-07-27T06:48:58.481Z,99.90
2022-07-27T06:51:02.068Z,99.90
2022-07-27T06:53:05.765Z,99.90
2022-07-27T06:55:10.316Z,99.90
2022-07-27T06:57:15.018Z,99.90
2022-07-27T06:59:18.652Z,99.90
2022-07-27T07:01:22.466Z,99.90
2022-07-27T07:03:26.481Z,99.90
2022-07-27T07:05:30.939Z,99.90
2022-07-27T07:07:34.414Z,99.90
2022-07-27T07:09:37.911Z,99.90
2022-07-27T07:11:41.466Z,99.90
2022-07-27T07:13:45.259Z,99.90
2022-07-27T07:15:48.882Z,99.90
2022-07-27T07:17:52.464Z,99.90
2022-07-27T07:19:55.986Z,99.90
2022-07-27T07:21:59.571Z,99.90
2022-07-27T07:24:03.611Z,99.90
2022-07-27T07:26:07.282Z,99.90
2022-07-27T07:28:10.874Z,99.90
2022-07-27T07:30:14.891Z,99.90
2022-07-27T07:32:20.746Z,99.90
2022-07-27T07:34:24.387Z,99.90
2022-07-27T07:38:44.741Z,99.90
2022-07-27T07:40:48.264Z,99.90
2022-07-27T07:42:53.815Z,99.90
2022-07-27T07:44:57.452Z,99.90
2022-07-27T07:47:01.137Z,99.90
2022-07-27T07:49:05.032Z,99.90
2022-07-27T07:51:08.727Z,99.90
2022-07-27T07:53:14.383Z,99.90
2022-07-27T07:55:20.789Z,99.90
2022-07-27T07:59:42.958Z,99.90
2022-07-27T08:01:46.839Z,99.90
2022-07-27T08:03:51.706Z,99.90
2022-07-27T08:05:55.300Z,99.90
2022-07-27T08:07:59.013Z,99.90
2022-07-27T08:10:03.148Z,99.90
2022-07-27T08:12:07.537Z,99.90
2022-07-27T08:14:11.186Z,99.90
2022-07-27T08:16:15.170Z,99.90
2022-07-27T08:18:19.127Z,99.90
2022-07-27T08:20:24.899Z,99.90
2022-07-27T08:24:44.119Z,99.90
2022-07-27T08:26:47.629Z,99.90
2022-07-27T08:28:51.133Z,99.90
2022-07-27T08:30:54.867Z,99.90
2022-07-27T08:33:00.473Z,99.90
2022-07-27T08:35:05.069Z,99.90
2022-07-27T08:37:12.048Z,99.90
2022-07-27T08:39:41.372Z,99.90
2022-07-27T08:41:21.555Z,99.90
2022-07-27T08:43:27.398Z,99.90
2022-07-27T08:45:31.403Z,99.90
2022-07-27T08:47:36.822Z,99.90
2022-07-27T08:49:44.380Z,99.90
2022-07-27T08:51:49.241Z,99.90
2022-07-27T08:53:54.286Z,99.90
2022-07-27T08:55:58.017Z,99.90
2022-07-27T08:58:03.477Z,99.90
2022-07-27T09:00:09.951Z,99.90
2022-07-27T09:02:14.832Z,99.90
2022-07-27T09:04:18.447Z,99.90
2022-07-27T09:06:42.045Z,99.90
2022-07-27T09:08:58.986Z,99.90
2022-07-27T09:11:04.385Z,99.90
2022-07-27T09:13:25.295Z,99.90
2022-07-27T09:15:34.578Z,99.90
2022-07-27T09:17:51.267Z,99.90
2022-07-27T09:19:54.560Z,99.90
2022-07-27T09:21:58.156Z,99.90
2022-07-27T09:24:23.250Z,99.90
2022-07-27T09:26:31.294Z,99.90
2022-07-27T09:28:30.098Z,99.90
2022-07-27T09:30:33.896Z,99.90
2022-07-27T09:32:38.000Z,99.90
2022-07-27T09:34:41.618Z,99.90
2022-07-27T09:36:54.696Z,99.90
2022-07-27T09:39:02.773Z,99.90
2022-07-27T09:41:07.101Z,99.90
2022-07-27T09:45:34.378Z,99.90
2022-07-27T09:47:39.093Z,99.90
2022-07-27T09:49:42.730Z,99.90
2022-07-27T09:52:02.821Z,99.90
2022-07-27T09:53:53.007Z,99.90
2022-07-27T09:55:59.462Z,99.90
2022-07-27T09:58:03.116Z,99.90
2022-07-27T10:00:14.594Z,99.90
2022-07-27T10:02:18.383Z,99.90
2022-07-27T10:04:23.123Z,99.90
2022-07-27T10:06:27.824Z,99.90
2022-07-27T10:08:32.765Z,99.90
2022-07-27T10:10:36.342Z,99.90
2022-07-27T10:12:41.203Z,99.90
2022-07-27T10:14:44.741Z,99.90
2022-07-27T10:19:14.060Z,99.90
2022-07-27T10:21:18.085Z,99.90
2022-07-27T10:25:45.226Z,99.90
2022-07-27T10:30:09.049Z,99.90
2022-07-27T10:34:37.649Z,99.90
2022-07-27T10:39:10.508Z,99.90
2022-07-27T10:43:38.029Z,99.90
2022-07-27T10:48:01.011Z,99.90
2022-07-27T10:50:29.902Z,99.90
2022-07-27T10:55:00.183Z,99.90
2022-07-27T11:04:18.338Z,99.90
2022-07-27T11:11:27.402Z,99.90
2022-07-27T11:13:35.330Z,99.90
2022-07-27T11:18:00.729Z,99.90
2022-07-27T11:19:58.756Z,99.90
2022-07-27T11:22:04.727Z,99.90
2022-07-27T11:26:34.339Z,99.90
2022-07-27T11:28:38.852Z,99.90
2022-07-27T11:33:02.701Z,99.90
2022-07-27T11:37:31.460Z,99.90
2022-07-27T11:39:59.090Z,99.90
2022-07-27T11:46:19.638Z,99.90
2022-07-27T11:53:20.454Z,99.90
2022-07-27T11:57:43.837Z,99.90
2022-07-27T11:59:47.460Z,99.90
2022-07-27T12:01:52.685Z,99.90
2022-07-27T12:06:24.714Z,99.90
2022-07-27T12:10:58.040Z,99.90
2022-07-27T12:17:31.313Z,99.90
2022-07-27T12:19:35.537Z,99.90
2022-07-27T12:21:39.532Z,99.90
2022-07-27T12:23:51.125Z,99.90
2022-07-27T12:28:14.878Z,99.90
2022-07-27T12:30:19.488Z,99.90
2022-07-27T12:34:58.370Z,99.90
2022-07-27T12:37:04.220Z,99.90
2022-07-27T12:39:08.237Z,99.90
2022-07-27T12:43:29.336Z,99.90
2022-07-27T12:45:35.479Z,99.90
2022-07-27T12:47:41.933Z,99.90
2022-07-27T12:49:47.416Z,99.90
2022-07-27T12:51:51.029Z,99.90
2022-07-27T12:56:11.170Z,99.80
2022-07-27T12:58:14.786Z,99.90
2022-07-27T13:02:33.706Z,99.90
2022-07-27T13:04:37.303Z,99.90
2022-07-27T13:06:40.825Z,99.90
2022-07-27T13:08:44.491Z,99.90
2022-07-27T13:13:08.295Z,99.90
2022-07-27T13:15:12.871Z,99.90
2022-07-27T13:17:16.365Z,99.90
2022-07-27T13:21:34.126Z,99.90
2022-07-27T13:25:53.371Z,98.00
2022-07-27T13:27:57.004Z,99.90
2022-07-27T13:32:18.561Z,97.70
2022-07-27T13:34:22.700Z,97.60
2022-07-27T13:38:42.666Z,95.80
2022-07-27T13:40:47.424Z,98.70
2022-07-27T13:45:10.227Z,98.00
2022-07-27T13:49:30.914Z,99.50
2022-07-27T13:51:34.455Z,99.90
2022-07-27T13:55:53.792Z,99.90
2022-07-27T13:57:57.408Z,99.90
2022-07-27T14:02:22.948Z,99.70
2022-07-27T14:07:00.730Z,99.90
2022-07-27T14:11:21.976Z,99.90
2022-07-27T14:13:26.904Z,99.90
2022-07-27T14:15:30.537Z,99.40
2022-07-27T14:17:33.997Z,99.90
2022-07-27T14:19:37.923Z,99.90
2022-07-27T14:23:57.889Z,98.80
2022-07-27T14:28:18.573Z,96.30
2022-07-27T14:30:22.124Z,98.50
2022-07-27T14:32:25.726Z,98.20
2022-07-27T14:36:44.761Z,96.00
2022-07-27T14:38:48.382Z,97.30
2022-07-27T14:43:12.077Z,97.10
2022-07-27T14:47:31.296Z,95.60
2022-07-27T14:51:56.687Z,97.00
2022-07-27T14:56:16.097Z,96.30
2022-07-27T14:58:19.687Z,97.50
2022-07-27T15:02:41.007Z,96.40
2022-07-27T15:04:44.660Z,96.20
2022-07-27T15:06:48.295Z,96.20
2022-07-27T15:08:52.043Z,97.10
2022-07-27T15:13:11.268Z,97.40
2022-07-27T15:17:31.401Z,96.40
2022-07-27T15:19:35.037Z,95.40
2022-07-27T15:21:39.054Z,96.10
2022-07-27T15:26:01.572Z,96.80
2022-07-27T15:30:22.214Z,96.90
2022-07-27T15:34:41.914Z,97.10
2022-07-27T15:36:51.615Z,96.90
2022-07-27T15:41:06.753Z,97.60
2022-07-27T15:45:26.700Z,97.20
2022-07-27T15:47:30.273Z,96.70
2022-07-27T15:49:33.872Z,98.80
2022-07-27T15:51:37.479Z,99.10
2022-07-27T15:53:41.092Z,98.30
2022-07-27T15:55:45.704Z,99.10
2022-07-27T16:00:05.850Z,98.60
2022-07-27T16:04:23.931Z,98.00
2022-07-27T16:06:28.611Z,98.20
2022-07-27T16:10:50.733Z,99.10
2022-07-27T16:15:12.268Z,98.80
2022-07-27T16:17:15.985Z,98.90
2022-07-27T16:19:19.561Z,98.80
2022-07-27T16:21:24.381Z,99.30
2022-07-27T16:23:28.540Z,98.90
2022-07-27T16:26:01.022Z,98.90
2022-07-27T16:27:37.630Z,98.40
2022-07-27T16:31:58.917Z,99.10
2022-07-27T16:34:02.399Z,98.80
2022-07-27T16:38:21.603Z,98.10
2022-07-27T16:42:41.861Z,99.60
2022-07-27T16:44:45.490Z,98.70
2022-07-27T16:49:09.603Z,99.70
2022-07-27T16:53:33.487Z,99.90
2022-07-27T17:00:11.155Z,99.50
2022-07-27T17:04:30.053Z,99.30
2022-07-27T17:08:51.278Z,98.60
2022-07-27T17:10:54.916Z,97.90
2022-07-27T17:15:14.506Z,97.80
2022-07-27T17:17:18.782Z,96.00
2022-07-27T17:21:37.724Z,97.10
2022-07-27T17:25:58.077Z,97.20
2022-07-27T17:30:20.733Z,96.30
2022-07-27T17:34:41.025Z,98.10
2022-07-27T17:36:44.631Z,98.10
2022-07-27T17:38:49.848Z,99.90
2022-07-27T17:40:53.451Z,98.80
2022-07-27T17:42:57.088Z,99.00
2022-07-27T17:45:00.663Z,99.00
2022-07-27T17:49:19.265Z,98.20
2022-07-27T17:53:40.569Z,99.20
2022-07-27T17:55:44.241Z,99.10
2022-07-27T17:57:47.851Z,99.30
2022-07-27T17:59:51.420Z,98.50
2022-07-27T18:04:11.456Z,98.70
2022-07-27T18:08:31.778Z,98.90
2022-07-27T18:12:52.484Z,99.20
2022-07-27T18:17:12.038Z,99.10
2022-07-27T18:21:32.096Z,98.70
2022-07-27T18:25:51.423Z,99.10
2022-07-27T18:30:12.944Z,98.40
2022-07-27T18:32:16.530Z,99.10
2022-07-27T18:36:39.044Z,99.90
2022-07-27T18:40:59.377Z,99.90
2022-07-27T18:43:04.213Z,99.90
2022-07-27T18:47:24.266Z,99.90
2022-07-27T18:51:45.470Z,99.90
2022-07-27T18:53:49.008Z,99.90
2022-07-27T18:58:08.740Z,99.90
2022-07-27T19:02:35.735Z,99.90
2022-07-27T19:04:36.831Z,99.90
2022-07-27T19:08:56.987Z,99.90
2022-07-27T19:13:16.695Z,99.90
2022-07-27T19:17:35.945Z,99.90
2022-07-27T19:21:55.156Z,99.90
2022-07-27T19:26:15.534Z,99.90
2022-07-27T19:30:38.186Z,99.90
2022-07-27T19:35:00.373Z,99.90
2022-07-27T19:41:36.931Z,99.90
2022-07-27T19:43:40.425Z,99.90
2022-07-27T19:45:44.242Z,99.90
2022-07-27T19:50:04.570Z,99.90
2022-07-27T19:52:08.304Z,99.90
2022-07-27T19:56:30.067Z,99.90
2022-07-27T19:58:34.175Z,99.90
2022-07-27T20:02:57.195Z,99.90
2022-07-27T20:07:16.677Z,99.90
2022-07-27T20:09:20.300Z,99.90
2022-07-27T20:11:24.125Z,99.90
2022-07-27T20:15:45.005Z,99.90
2022-07-27T20:20:26.762Z,99.90
2022-07-27T20:22:30.873Z,99.90
2022-07-27T20:26:51.622Z,99.90
2022-07-27T20:32:22.571Z,99.90
2022-07-27T20:35:39.332Z,99.90
2022-07-27T20:40:05.312Z,99.90
2022-07-27T20:44:26.966Z,99.90
2022-07-27T20:46:30.874Z,99.90
2022-07-27T20:50:51.376Z,99.90
2022-07-27T20:55:15.616Z,99.90
2022-07-27T20:59:36.846Z,99.90
2022-07-27T21:03:54.693Z,99.90
2022-07-27T21:05:59.321Z,99.90
2022-07-27T21:10:19.081Z,99.90
2022-07-27T21:12:22.696Z,99.90
2022-07-27T21:16:42.447Z,99.90
2022-07-27T21:18:46.097Z,99.90
2022-07-27T21:23:24.840Z,99.90
2022-07-27T21:27:43.877Z,99.90
2022-07-27T21:32:05.480Z,99.90
2022-07-27T21:36:23.341Z,99.90
2022-07-27T21:40:42.565Z,99.90
2022-07-27T21:45:01.953Z,99.90
2022-07-27T21:49:34.037Z,99.90
2022-07-27T21:53:42.961Z,99.90
2022-07-27T21:55:46.579Z,99.90
2022-07-27T22:00:08.448Z,99.90
2022-07-27T22:02:12.489Z,99.90
2022-07-27T22:06:31.468Z,99.90
2022-07-27T22:10:53.016Z,99.90
2022-07-27T22:15:12.292Z,99.90
2022-07-27T22:19:33.215Z,99.90
2022-07-27T22:21:36.955Z,99.90
2022-07-27T22:23:40.557Z,99.90
2022-07-27T22:25:44.221Z,99.90
2022-07-27T22:30:05.061Z,99.90
2022-07-27T22:34:27.786Z,99.90
2022-07-27T22:38:49.177Z,99.90
2022-07-27T22:43:11.664Z,99.90
2022-07-27T22:47:32.273Z,99.90
2022-07-27T22:51:52.807Z,99.90
2022-07-27T22:56:13.673Z,99.90
2022-07-27T23:00:33.984Z,99.90
2022-07-27T23:04:55.743Z,99.90
2022-07-27T23:07:00.654Z,99.90
2022-07-27T23:09:04.433Z,99.90
2022-07-27T23:13:23.712Z,99.90
2022-07-27T23:15:27.935Z,99.90
2022-07-27T23:17:31.439Z,99.90
2022-07-27T23:21:50.666Z,99.90
2022-07-27T23:26:14.309Z,99.90
2022-07-27T23:30:37.875Z,99.90
2022-07-27T23:32:41.582Z,99.90
2022-07-27T23:34:45.170Z,99.90
2022-07-27T23:39:07.082Z,99.90
2022-07-27T23:41:10.565Z,99.90
2022-07-27T23:47:47.600Z,99.90
2022-07-27T23:49:51.083Z,99.90
2022-07-27T23:51:54.693Z,99.90
2022-07-27T23:53:59.846Z,99.90
2022-07-27T23:56:03.482Z,99.90
2022-07-27T23:58:07.057Z,99.90
